Thunder radar more information blitzortung!


Rain radar more information rain snow radar


Visit our other weather sites:

Template documentation
and downloads

And another site



No particular awareness of the weather is required.    There are no Weather-warnings

Nearby METAR Reports

   
LEBL - Barcelona Airpor, Spain
Distance from station: SSE 30 km
Updated: 13-11-2018 18:30
Few Clouds  
Few Clouds  
   Wind: ENE 20.4 km/h
Wind: ENE 20.4 km/h
Temperature: 18°C
Dew Point: 15°C
Humidity: 83%
Barometer: 1025 hPa
Clouds: Few Clouds
Visibility: More than 10 km
Cloud details: Few Clouds 1500 ft
LEBL 131730Z 07011KT 9999 FEW015 18/15 Q1025 NOSIG
LELL - Sabadell, Spain
Distance from station: WNW 14 km
Updated: 13-11-2018 18:30
Few Clouds  
Few Clouds  
   Wind: ENE 13 km/h
Wind: ENE 13 km/h
Temperature: 18°C
Dew Point: 15°C
Humidity: 83%
Barometer: 1026 hPa
Clouds: Few Clouds
Visibility: More than 10 km
Cloud details: Few Clouds 4400 ft
LELL 131730Z AUTO 07007KT 020V110 9999 FEW044 18/15 Q1026
LEGE - Girona/Costa Bra, Spain
Distance from station: NE 65 km
Updated: 13-11-2018 18:30
Partly Cloudy  
Partly Cloudy  
   Wind: NNE 7.4 km/h
Wind: NNE 7.4 km/h
Temperature: 15°C
Dew Point: 15°C
Humidity: 100%
Barometer: 1026 hPa
Clouds: Partly Cloudy
Visibility: More than 10 km
Cloud details: Few Clouds 1800 ft,
Partly Cloudy 2500 ft
LEGE 131730Z 03004KT 9999 FEW018 SCT025 15/15 Q1026
LERS - Reus (civ/Mil), Spain
Distance from station: WSW 96 km
Updated: 13-11-2018 18:30
Few Clouds  
Few Clouds  
   Wind: ENE 5.6 km/h
Wind: ENE 5.6 km/h
Temperature: 18°C
Dew Point: 16°C
Humidity: 88%
Barometer: 1025 hPa
Clouds: Few Clouds
Visibility: More than 10 km
Cloud details: Few Clouds 2900 ft
LERS 131730Z 07003KT 040V120 9999 FEW029 18/16 Q1025
LESU - Pirineus/La Seu, Spain
Distance from station: NW 121 km
Updated: 12-11-2018 17:00
NOT Current
Few Clouds  
Few Clouds  
   Wind: varies 3.7 km/h
Wind: varies 3.7 km/h
Temperature: 16°C
Dew Point: 10°C
Humidity: 68%
Barometer: 1019 hPa
Clouds: Few Clouds
Visibility: More than 10 km
Cloud details: Few Clouds 6000 ft
LESU 121600Z VRB02KT 9999 FEW060 16/10 Q1019
LEDA - Lleida/Alguaire, Spain
Distance from station: WNW 146 km
Updated: 13-11-2018 07:00
NOT Current
Clear  
Clear  
   Wind: NNE 5.6 km/h
Wind: NNE 5.6 km/h
Temperature: 9°C
Wind Chill: 8°C
Dew Point: 9°C
Humidity: 100%
Barometer: 1023 hPa
Visibility: More than 10 km
Cloud details: Clear ft
LEDA 130600Z AUTO 03003KT CAVOK 09/09 Q1023
LFMP - Perpignan/Rivesa, France
Distance from station: NNE 150 km
Updated: 13-11-2018 18:30
Overcast  
Overcast  
   Wind: ESE 5.6 km/h
Wind: ESE 5.6 km/h
Temperature: 17°C
Dew Point: 14°C
Humidity: 83%
Barometer: 1027 hPa
Clouds: Overcast
Visibility: More than 10 km
Cloud details: Mostly Cloudy 1900 ft,
Overcast 3200 ft
LFMP 131730Z AUTO 12003KT 9999 BKN019 OVC032 17/14 Q1027 TEMPO 2000 BR
LEPA - Palma De Mallorca, Spain
Distance from station: S 216 km
Updated: 13-11-2018 18:30
Clear  
Clear  
   Wind: ENE 14.8 km/h
Wind: ENE 14.8 km/h
Temperature: 18°C
Dew Point: 16°C
Humidity: 88%
Barometer: 1023 hPa
Visibility: More than 10 km
Cloud details: Clear ft
LEPA 131730Z 06008KT CAVOK 18/16 Q1023 NOSIG
 

Script developed by  Saratoga-weather.org Adapted for the template by  Weerstation Leuven

You find our weather info also at:

Weather Underground

AWEKAS